createdAt,value
2018-02-06T00:00:44.376Z,1045.44
2018-02-06T00:01:44.370Z,1045.4
2018-02-06T00:02:44.339Z,1045.42
2018-02-06T00:03:44.319Z,1045.4
2018-02-06T00:04:44.300Z,1045.4
2018-02-06T00:05:44.281Z,1045.42
2018-02-06T00:06:44.266Z,1045.44
2018-02-06T00:07:44.244Z,1045.42
2018-02-06T00:08:44.225Z,1045.5
2018-02-06T00:09:44.207Z,1045.53
2018-02-06T00:10:44.187Z,1045.55
2018-02-06T00:11:44.168Z,1045.52
2018-02-06T00:12:44.151Z,1045.52
2018-02-06T00:13:44.130Z,1045.55
2018-02-06T00:14:44.111Z,1045.53
2018-02-06T00:15:44.093Z,1045.54
2018-02-06T00:16:44.073Z,1045.54
2018-02-06T00:17:44.054Z,1045.54
2018-02-06T00:18:44.036Z,1045.54
2018-02-06T00:19:44.017Z,1045.54
2018-02-06T00:20:43.999Z,1045.58
2018-02-06T00:21:43.980Z,1045.52
2018-02-06T00:22:43.959Z,1045.55
2018-02-06T00:23:43.941Z,1045.55
2018-02-06T00:24:43.922Z,1045.52
2018-02-06T00:25:43.903Z,1045.51
2018-02-06T00:26:43.883Z,1045.52
2018-02-06T00:27:43.870Z,1045.57
2018-02-06T00:28:43.847Z,1045.54
2018-02-06T00:29:43.835Z,1045.58
2018-02-06T00:30:43.812Z,1045.57
2018-02-06T00:31:43.790Z,1045.54
2018-02-06T00:32:43.772Z,1045.56
2018-02-06T00:33:43.751Z,1045.55
2018-02-06T00:34:43.732Z,1045.61
2018-02-06T00:35:43.713Z,1045.59
2018-02-06T00:36:43.697Z,1045.59
2018-02-06T00:37:43.676Z,1045.6
2018-02-06T00:38:43.656Z,1045.62
2018-02-06T00:39:43.670Z,1045.61
2018-02-06T00:40:43.617Z,1045.63
2018-02-06T00:41:43.598Z,1045.59
2018-02-06T00:42:43.581Z,1045.63
2018-02-06T00:43:43.562Z,1045.58
2018-02-06T00:44:43.541Z,1045.59
2018-02-06T00:45:43.523Z,1045.57
2018-02-06T00:46:43.505Z,1045.58
2018-02-06T00:47:43.484Z,1045.57
2018-02-06T00:48:43.466Z,1045.54
2018-02-06T00:49:43.447Z,1045.52
2018-02-06T00:50:43.428Z,1045.55
2018-02-06T00:51:43.408Z,1045.47
2018-02-06T00:52:43.392Z,1045.48
2018-02-06T00:53:43.370Z,1045.47
2018-02-06T00:54:43.351Z,1045.47
2018-02-06T00:55:43.331Z,1045.42
2018-02-06T00:56:43.316Z,1045.41
2018-02-06T00:57:43.293Z,1045.42
2018-02-06T00:58:43.275Z,1045.39
2018-02-06T00:59:43.255Z,1045.37
2018-02-06T01:00:43.237Z,1045.35
2018-02-06T01:01:43.218Z,1045.33
2018-02-06T01:02:43.198Z,1045.31
2018-02-06T01:03:43.179Z,1045.27
2018-02-06T01:04:43.161Z,1045.33
2018-02-06T01:05:43.140Z,1045.29
2018-02-06T01:06:43.124Z,1045.26
2018-02-06T01:07:43.103Z,1045.27
2018-02-06T01:08:43.084Z,1045.25
2018-02-06T01:09:43.064Z,1045.25
2018-02-06T01:10:43.044Z,1045.27
2018-02-06T01:11:43.025Z,1045.26
2018-02-06T01:12:43.008Z,1045.26
2018-02-06T01:13:42.986Z,1045.25
2018-02-06T01:14:42.968Z,1045.28
2018-02-06T01:15:42.949Z,1045.25
2018-02-06T01:16:42.931Z,1045.23
2018-02-06T01:17:42.912Z,1045.19
2018-02-06T01:18:42.892Z,1045.19
2018-02-06T01:19:42.879Z,1045.18
2018-02-06T01:20:42.855Z,1045.19
2018-02-06T01:21:42.835Z,1045.2
2018-02-06T01:22:42.815Z,1045.16
2018-02-06T01:23:42.797Z,1045.14
2018-02-06T01:24:42.783Z,1045.09
2018-02-06T01:25:42.758Z,1045.08
2018-02-06T01:26:42.750Z,1045.04
2018-02-06T01:27:42.720Z,1045.04
2018-02-06T01:28:42.701Z,1045.03
2018-02-06T01:29:42.682Z,1045.02
2018-02-06T01:30:42.669Z,1045.01
2018-02-06T01:31:42.644Z,1045.03
2018-02-06T01:32:42.627Z,1045.01
2018-02-06T01:33:42.606Z,1045
2018-02-06T01:34:42.594Z,1045.03
2018-02-06T01:35:42.567Z,1045.01
2018-02-06T01:36:42.547Z,1045
2018-02-06T01:37:42.528Z,1044.94
2018-02-06T01:38:42.511Z,1044.94
2018-02-06T01:39:42.489Z,1044.9
2018-02-06T01:40:42.470Z,1044.86
2018-02-06T01:41:42.453Z,1044.8
2018-02-06T01:42:42.434Z,1044.8
2018-02-06T01:43:42.413Z,1044.78
2018-02-06T01:44:42.394Z,1044.77
2018-02-06T01:45:42.376Z,1044.81
2018-02-06T01:46:42.356Z,1044.73
2018-02-06T01:47:42.337Z,1044.75
2018-02-06T01:48:42.317Z,1044.74
2018-02-06T01:49:42.299Z,1044.74
2018-02-06T01:50:42.279Z,1044.7
2018-02-06T01:51:42.259Z,1044.68
2018-02-06T01:52:42.242Z,1044.74
2018-02-06T01:53:42.222Z,1044.67
2018-02-06T01:54:42.202Z,1044.66
2018-02-06T01:55:42.184Z,1044.63
2018-02-06T01:56:42.165Z,1044.67
2018-02-06T01:57:42.145Z,1044.62
2018-02-06T01:58:42.125Z,1044.62
2018-02-06T01:59:42.107Z,1044.59
2018-02-06T02:00:42.088Z,1044.56
2018-02-06T02:01:42.068Z,1044.56
2018-02-06T02:02:42.048Z,1044.59
2018-02-06T02:03:42.029Z,1044.55
2018-02-06T02:04:42.010Z,1044.56
2018-02-06T02:05:41.992Z,1044.56
2018-02-06T02:06:41.973Z,1044.56
2018-02-06T02:07:41.953Z,1044.57
2018-02-06T02:08:41.933Z,1044.56
2018-02-06T02:09:41.916Z,1044.56
2018-02-06T02:10:41.896Z,1044.55
2018-02-06T02:11:41.877Z,1044.55
2018-02-06T02:12:41.862Z,1044.55
2018-02-06T02:13:41.838Z,1044.55
2018-02-06T02:14:41.818Z,1044.49
2018-02-06T02:15:41.800Z,1044.52
2018-02-06T02:16:41.780Z,1044.48
2018-02-06T02:17:41.762Z,1044.51
2018-02-06T02:18:41.745Z,1044.46
2018-02-06T02:19:41.722Z,1044.41
2018-02-06T02:20:41.703Z,1044.42
2018-02-06T02:21:41.685Z,1044.38
2018-02-06T02:22:41.666Z,1044.37
2018-02-06T02:23:41.645Z,1044.36
2018-02-06T02:24:41.627Z,1044.35
2018-02-06T02:25:41.608Z,1044.37
2018-02-06T02:26:41.588Z,1044.35
2018-02-06T02:27:41.569Z,1044.37
2018-02-06T02:28:41.552Z,1044.35
2018-02-06T02:29:41.530Z,1044.33
2018-02-06T02:30:41.511Z,1044.3
2018-02-06T02:31:41.492Z,1044.31
2018-02-06T02:32:41.472Z,1044.31
2018-02-06T02:33:41.454Z,1044.32
2018-02-06T02:34:41.434Z,1044.35
2018-02-06T02:35:41.414Z,1044.33
2018-02-06T02:36:41.395Z,1044.29
2018-02-06T02:37:41.377Z,1044.25
2018-02-06T02:38:41.356Z,1044.24
2018-02-06T02:39:41.338Z,1044.24
2018-02-06T02:40:41.319Z,1044.24
2018-02-06T02:41:41.299Z,1044.22
2018-02-06T04:38:39.034Z,1043.48
2018-02-06T04:39:39.012Z,1043.4
2018-02-06T04:40:39.004Z,1043.42
2018-02-06T04:41:38.974Z,1043.41
2018-02-06T04:42:38.952Z,1043.43
2018-02-06T04:43:38.944Z,1043.42
2018-02-06T04:44:38.913Z,1043.39
2018-02-06T04:45:38.894Z,1043.43
2018-02-06T04:46:38.875Z,1043.38
2018-02-06T04:47:38.855Z,1043.36
2018-02-06T04:48:38.836Z,1043.34
2018-02-06T04:49:38.815Z,1043.35
2018-02-06T04:50:38.797Z,1043.34
2018-02-06T04:51:38.777Z,1043.33
2018-02-06T04:52:38.758Z,1043.34
2018-02-06T04:53:38.738Z,1043.33
2018-02-06T04:54:38.718Z,1043.34
2018-02-06T04:55:38.699Z,1043.32
2018-02-06T04:56:38.678Z,1043.33
2018-02-06T04:57:38.660Z,1043.31
2018-02-06T04:58:38.641Z,1043.31
2018-02-06T04:59:38.621Z,1043.32
2018-02-06T05:00:38.600Z,1043.3
2018-02-06T05:01:38.580Z,1043.33
2018-02-06T05:02:38.582Z,1043.32
2018-02-06T05:03:38.543Z,1043.28
2018-02-06T05:04:38.524Z,1043.26
2018-02-06T05:05:38.503Z,1043.26
2018-02-06T05:06:38.483Z,1043.28
2018-02-06T05:07:38.463Z,1043.25
2018-02-06T05:08:38.445Z,1043.21
2018-02-06T05:09:38.424Z,1043.24
2018-02-06T05:11:38.385Z,1043.22
2018-02-06T05:12:38.366Z,1043.22
2018-02-06T05:13:38.349Z,1043.21
2018-02-06T05:14:38.326Z,1043.19
2018-02-06T05:15:38.308Z,1043.22
2018-02-06T05:16:38.288Z,1043.17
2018-02-06T05:17:38.268Z,1043.2
2018-02-06T05:18:38.248Z,1043.23
2018-02-06T05:19:38.229Z,1043.21
2018-02-06T05:20:38.209Z,1043.21
2018-02-06T05:21:38.190Z,1043.14
2018-02-06T05:22:38.172Z,1043.19
2018-02-06T05:23:38.152Z,1043.17
2018-02-06T05:24:38.137Z,1043.16
2018-02-06T05:25:38.112Z,1043.12
2018-02-06T05:26:38.095Z,1043.13
2018-02-06T05:27:38.072Z,1043.11
2018-02-06T05:28:38.054Z,1043.16
2018-02-06T05:29:38.033Z,1043.11
2018-02-06T05:30:38.023Z,1043.11
2018-02-06T05:31:37.994Z,1043.07
2018-02-06T05:32:37.975Z,1043.09
2018-02-06T05:33:37.954Z,1043.1
2018-02-06T05:34:37.934Z,1043.07
2018-02-06T05:35:37.916Z,1043.09
2018-02-06T05:36:37.896Z,1043.08
2018-02-06T05:37:37.879Z,1043.08
2018-02-06T05:38:37.856Z,1043.1
2018-02-06T05:39:37.845Z,1043.05
2018-02-06T05:40:37.816Z,1043.1
2018-02-06T05:41:37.797Z,1043.06
2018-02-06T05:42:37.778Z,1043.05
2018-02-06T05:43:37.758Z,1043.07
2018-02-06T05:44:37.739Z,1043.09
2018-02-06T05:45:37.719Z,1043.07
2018-02-06T05:46:37.702Z,1043.1
2018-02-06T05:47:37.680Z,1043.09
2018-02-06T05:48:37.661Z,1043.07
2018-02-06T05:49:37.640Z,1043.07
2018-02-06T05:50:37.621Z,1043.07
2018-02-06T05:51:37.601Z,1043.05
2018-02-06T05:52:37.582Z,1042.99
2018-02-06T05:53:37.563Z,1042.99
2018-02-06T05:54:37.543Z,1042.99
2018-02-06T05:55:37.523Z,1043
2018-02-06T05:56:37.504Z,1042.94
2018-02-06T05:57:37.484Z,1043
2018-02-06T05:58:37.463Z,1042.98
2018-02-06T05:59:37.445Z,1042.97
2018-02-06T06:00:37.425Z,1042.97
2018-02-06T06:01:37.405Z,1042.98
2018-02-06T06:02:37.385Z,1042.96
2018-02-06T06:03:37.394Z,1042.96
2018-02-06T06:04:37.346Z,1042.94
2018-02-06T06:05:37.326Z,1042.87
2018-02-06T06:06:37.307Z,1042.88
2018-02-06T06:07:37.288Z,1042.93
2018-02-06T06:08:37.268Z,1042.9
2018-02-06T06:09:37.248Z,1042.86
2018-02-06T06:10:37.228Z,1042.89
2018-02-06T06:11:37.208Z,1042.82
2018-02-06T06:12:37.189Z,1042.82
2018-02-06T06:13:37.169Z,1042.82
2018-02-06T06:14:37.150Z,1042.8
2018-02-06T06:15:37.130Z,1042.78
2018-02-06T06:16:37.111Z,1042.78
2018-02-06T06:17:37.089Z,1042.81
2018-02-06T06:18:37.072Z,1042.78
2018-02-06T06:19:37.051Z,1042.82
2018-02-06T06:20:37.036Z,1042.83
2018-02-06T06:21:37.017Z,1042.84
2018-02-06T06:22:36.994Z,1042.84
2018-02-06T06:24:36.953Z,1042.84
2018-02-06T06:25:36.934Z,1042.82
2018-02-06T06:26:36.916Z,1042.83
2018-02-06T06:27:36.895Z,1042.84
2018-02-06T06:28:36.874Z,1042.83
2018-02-06T06:29:36.854Z,1042.8
2018-02-06T06:30:36.834Z,1042.83
2018-02-06T06:31:36.814Z,1042.8
2018-02-06T06:32:36.799Z,1042.8
2018-02-06T06:33:36.777Z,1042.81
2018-02-06T06:34:36.757Z,1042.79
2018-02-06T06:35:36.736Z,1042.79
2018-02-06T06:36:36.718Z,1042.8
2018-02-06T06:37:36.696Z,1042.8
2018-02-06T06:38:36.682Z,1042.76
2018-02-06T06:39:36.671Z,1042.78
2018-02-06T06:40:36.639Z,1042.79
2018-02-06T06:41:36.619Z,1042.74
2018-02-06T06:42:36.599Z,1042.73
2018-02-06T06:43:36.579Z,1042.7
2018-02-06T06:44:36.560Z,1042.65
2018-02-06T06:45:36.541Z,1042.66
2018-02-06T06:47:36.506Z,1042.61
2018-02-06T06:48:36.480Z,1042.57
2018-02-06T06:49:36.462Z,1042.56
2018-02-06T06:50:36.444Z,1042.55
2018-02-06T06:51:36.423Z,1042.58
2018-02-06T06:52:36.404Z,1042.53
2018-02-06T06:53:36.384Z,1042.5
2018-02-06T06:54:36.364Z,1042.48
2018-02-06T06:55:36.344Z,1042.45
2018-02-06T06:56:36.325Z,1042.41
2018-02-06T06:57:36.305Z,1042.36
2018-02-06T06:58:36.287Z,1042.35
2018-02-06T06:59:36.267Z,1042.35
2018-02-06T07:00:36.247Z,1042.31
2018-02-06T07:01:36.227Z,1042.27
2018-02-06T07:02:36.207Z,1042.27
2018-02-06T07:03:36.189Z,1042.28
2018-02-06T07:04:36.168Z,1042.27
2018-02-06T07:05:36.149Z,1042.24
2018-02-06T07:06:36.131Z,1042.14
2018-02-06T07:07:36.110Z,1042.12
2018-02-06T07:08:36.091Z,1042.09
2018-02-06T07:09:36.072Z,1042.02
2018-02-06T07:10:36.053Z,1041.97
2018-02-06T07:11:36.032Z,1041.86
2018-02-06T07:12:36.014Z,1041.79
2018-02-06T07:13:35.994Z,1041.69
2018-02-06T07:14:35.975Z,1041.58
2018-02-06T07:15:35.955Z,1041.43
2018-02-06T07:16:35.936Z,1041.27
2018-02-06T07:17:35.917Z,1041.08
2018-02-06T07:18:35.899Z,1040.86
2018-02-06T07:19:35.883Z,1040.72
2018-02-06T07:20:35.859Z,1040.57
2018-02-06T07:21:35.841Z,1040.48
2018-02-06T07:22:35.820Z,1040.3
2018-02-06T07:23:35.802Z,1040.17
2018-02-06T07:24:35.787Z,1040.01
2018-02-06T07:25:35.765Z,1039.97
2018-02-06T07:26:35.747Z,1039.95
2018-02-06T07:27:35.729Z,1039.97
2018-02-06T07:28:35.710Z,1040.07
2018-02-06T07:29:35.692Z,1040.08
2018-02-06T07:30:35.672Z,1040.16
2018-02-06T07:31:35.655Z,1040.08
2018-02-06T07:32:35.637Z,1039.97
2018-02-06T07:33:35.621Z,1039.79
2018-02-06T07:34:35.600Z,1039.61
2018-02-06T07:35:35.583Z,1039.43
2018-02-06T07:36:35.565Z,1039.21
2018-02-06T07:37:35.546Z,1039.12
2018-02-06T07:38:35.529Z,1039.02
2018-02-06T07:39:35.511Z,1038.91
2018-02-06T07:40:35.493Z,1038.98
2018-02-06T07:41:35.474Z,1039.03
2018-02-06T07:42:35.459Z,1039.18
2018-02-06T07:44:35.422Z,1039.36
2018-02-06T07:45:35.404Z,1039.5
2018-02-06T07:46:35.387Z,1039.58
2018-02-06T07:47:35.371Z,1039.65
2018-02-06T07:48:35.359Z,1039.68
2018-02-06T07:49:35.334Z,1039.7
2018-02-06T07:50:35.318Z,1039.72
2018-02-06T07:51:35.299Z,1039.75
2018-02-06T07:52:35.287Z,1039.79
2018-02-06T07:53:35.265Z,1039.82
2018-02-06T07:54:35.247Z,1039.84
2018-02-06T07:55:35.231Z,1039.87
2018-02-06T07:56:35.213Z,1039.94
2018-02-06T07:57:35.196Z,1039.89
2018-02-06T07:58:35.177Z,1039.91
2018-02-06T07:59:35.160Z,1039.9
2018-02-06T08:00:35.141Z,1039.93
2018-02-06T08:01:35.125Z,1039.88
2018-02-06T08:02:35.107Z,1039.86
2018-02-06T08:03:35.090Z,1039.84
2018-02-06T08:04:35.072Z,1039.84
2018-02-06T08:05:35.055Z,1039.84
2018-02-06T08:06:35.037Z,1039.84
2018-02-06T08:07:35.020Z,1039.88
2018-02-06T08:08:35.002Z,1039.8
2018-02-06T08:09:34.985Z,1039.78
2018-02-06T08:10:34.967Z,1039.74
2018-02-06T08:11:34.950Z,1039.7
2018-02-06T08:12:34.933Z,1039.68
2018-02-06T08:13:34.920Z,1039.67
2018-02-06T08:14:34.896Z,1039.67
2018-02-06T08:15:34.879Z,1039.67
2018-02-06T08:16:34.862Z,1039.63
2018-02-06T08:17:34.845Z,1039.65
2018-02-06T08:18:34.826Z,1039.65
2018-02-06T08:19:34.817Z,1039.64
2018-02-06T08:20:34.799Z,1039.65
2018-02-06T08:21:34.774Z,1039.65
2018-02-06T08:22:34.758Z,1039.7
2018-02-06T08:23:34.740Z,1039.72
2018-02-06T08:24:34.722Z,1039.7
2018-02-06T08:25:34.706Z,1039.68
2018-02-06T08:26:34.690Z,1039.68
2018-02-06T08:27:34.672Z,1039.61
2018-02-06T08:28:34.654Z,1039.56
2018-02-06T08:29:34.637Z,1039.65
2018-02-06T08:30:34.618Z,1039.59
2018-02-06T08:31:34.601Z,1039.56
2018-02-06T08:32:34.582Z,1039.56
2018-02-06T08:33:34.567Z,1039.53
2018-02-06T08:34:34.548Z,1039.5
2018-02-06T08:35:34.531Z,1039.48
2018-02-06T08:36:34.514Z,1039.47
2018-02-06T08:37:34.497Z,1039.43
2018-02-06T08:38:34.479Z,1039.38
2018-02-06T08:39:34.460Z,1039.37
2018-02-06T08:40:34.445Z,1039.31
2018-02-06T08:41:34.428Z,1039.3
2018-02-06T08:43:34.393Z,1039.27
2018-02-06T08:45:34.358Z,1039.23
2018-02-06T08:46:34.340Z,1039.22
2018-02-06T08:47:34.323Z,1039.2
2018-02-06T08:48:34.305Z,1039.17
2018-02-06T08:49:34.288Z,1039.18
2018-02-06T08:50:34.272Z,1039.15
2018-02-06T08:51:34.253Z,1039.1
2018-02-06T08:52:34.237Z,1039.07
2018-02-06T08:53:34.221Z,1039.06
2018-02-06T08:54:34.202Z,1039.08
2018-02-06T08:55:34.199Z,1039.02
2018-02-06T08:56:34.215Z,1039.01
2018-02-06T08:57:34.150Z,1038.95
2018-02-06T08:58:34.134Z,1038.91
2018-02-06T08:59:34.117Z,1038.94
2018-02-06T09:00:34.100Z,1038.91
2018-02-06T09:01:34.083Z,1038.84
2018-02-06T09:02:34.067Z,1038.81
2018-02-06T09:03:34.050Z,1038.76
2018-02-06T09:04:34.032Z,1038.72
2018-02-06T09:05:34.015Z,1038.73
2018-02-06T09:06:34.006Z,1038.72
2018-02-06T09:07:33.983Z,1038.68
2018-02-06T09:08:33.964Z,1038.67
2018-02-06T09:09:33.947Z,1038.66
2018-02-06T09:10:33.932Z,1038.69
2018-02-06T09:11:33.914Z,1038.66
2018-02-06T09:12:33.897Z,1038.61
2018-02-06T09:13:33.881Z,1038.57
2018-02-06T09:14:33.865Z,1038.51
2018-02-06T09:15:33.848Z,1038.53
2018-02-06T09:16:33.842Z,1038.49
2018-02-06T09:17:33.814Z,1038.46
2018-02-06T09:18:33.798Z,1038.42
2018-02-06T09:19:33.780Z,1038.37
2018-02-06T09:20:33.767Z,1038.38
2018-02-06T09:21:33.747Z,1038.37
2018-02-06T09:22:33.732Z,1038.34
2018-02-06T09:23:33.714Z,1038.31
2018-02-06T09:24:33.698Z,1038.28
2018-02-06T09:25:33.681Z,1038.27
2018-02-06T09:26:33.666Z,1038.24
2018-02-06T09:27:33.650Z,1038.24
2018-02-06T09:28:33.633Z,1038.24
2018-02-06T09:29:33.616Z,1038.26
2018-02-06T09:30:33.600Z,1038.24
2018-02-06T09:31:33.583Z,1038.22
2018-02-06T09:32:33.566Z,1038.22
2018-02-06T09:33:33.550Z,1038.26
2018-02-06T09:34:33.533Z,1038.22
2018-02-06T09:35:33.518Z,1038.23
2018-02-06T09:36:33.502Z,1038.21
2018-02-06T09:37:33.486Z,1038.22
2018-02-06T09:38:33.469Z,1038.21
2018-02-06T09:39:33.479Z,1038.16
2018-02-06T09:40:33.436Z,1038.14
2018-02-06T09:41:33.429Z,1038.18
2018-02-06T09:42:33.404Z,1038.16
2018-02-06T09:43:33.388Z,1038.17
2018-02-06T09:44:33.371Z,1038.18
2018-02-06T09:45:33.354Z,1038.22
2018-02-06T09:46:33.343Z,1038.22
2018-02-06T09:47:33.325Z,1038.17
2018-02-06T09:48:33.307Z,1038.13
2018-02-06T09:49:33.291Z,1038.09
2018-02-06T09:50:33.273Z,1038.09
2018-02-06T09:51:33.257Z,1038.13
2018-02-06T09:52:33.243Z,1038.06
2018-02-06T09:53:33.224Z,1038.08
2018-02-06T09:54:33.208Z,1038.09
2018-02-06T09:55:33.194Z,1038.13
2018-02-06T09:56:33.177Z,1038.08
2018-02-06T09:57:33.160Z,1038.17
2018-02-06T09:58:33.155Z,1038.17
2018-02-06T09:59:33.130Z,1038.18
2018-02-06T10:00:33.114Z,1038.16
2018-02-06T10:01:33.097Z,1038.12
2018-02-06T10:02:33.081Z,1038.11
2018-02-06T10:03:33.064Z,1038.08
2018-02-06T10:04:33.060Z,1038.06
2018-02-06T10:05:33.033Z,1038.06
2018-02-06T10:06:33.018Z,1038.03
2018-02-06T10:07:33.000Z,1037.94
2018-02-06T10:08:33.285Z,1037.94
2018-02-06T10:09:32.968Z,1037.93
2018-02-06T10:10:32.952Z,1037.88
2018-02-06T10:11:32.935Z,1037.86
2018-02-06T10:12:32.920Z,1037.87
2018-02-06T10:13:32.905Z,1037.84
2018-02-06T10:14:32.888Z,1037.83
2018-02-06T10:15:32.871Z,1037.82
2018-02-06T10:16:32.856Z,1037.7
2018-02-06T10:17:32.840Z,1037.7
2018-02-06T10:18:32.825Z,1037.63
2018-02-06T10:20:32.791Z,1037.57
2018-02-06T10:21:32.774Z,1037.54
2018-02-06T10:22:32.758Z,1037.55
2018-02-06T10:23:32.743Z,1037.52
2018-02-06T10:24:32.727Z,1037.59
2018-02-06T10:25:32.710Z,1037.51
2018-02-06T10:26:32.696Z,1037.54
2018-02-06T10:27:32.678Z,1037.56
2018-02-06T10:28:32.666Z,1037.52
2018-02-06T10:29:32.648Z,1037.5
2018-02-06T10:30:32.631Z,1037.44
2018-02-06T10:31:32.614Z,1037.42
2018-02-06T10:32:32.599Z,1037.37
2018-02-06T10:33:32.584Z,1037.34
2018-02-06T10:34:32.567Z,1037.32
2018-02-06T10:35:32.551Z,1037.31
2018-02-06T10:36:32.535Z,1037.23
2018-02-06T10:37:32.519Z,1037.21
2018-02-06T10:38:32.513Z,1037.22
2018-02-06T10:39:32.488Z,1037.22
2018-02-06T10:40:32.471Z,1037.24
2018-02-06T10:41:32.456Z,1037.28
2018-02-06T10:42:32.439Z,1037.22
2018-02-06T10:43:32.428Z,1037.25
2018-02-06T10:44:32.414Z,1037.23
2018-02-06T10:45:32.407Z,1037.25
2018-02-06T10:46:32.377Z,1037.24
2018-02-06T10:47:32.360Z,1037.22
2018-02-06T10:48:32.344Z,1037.2
2018-02-06T10:49:32.330Z,1037.2
2018-02-06T10:50:32.313Z,1037.14
2018-02-06T10:51:32.298Z,1037.15
2018-02-06T10:52:32.281Z,1037.16
2018-02-06T10:53:32.274Z,1037.17
2018-02-06T10:54:32.249Z,1037.17
2018-02-06T10:55:32.233Z,1037.16
2018-02-06T10:56:32.218Z,1037.16
2018-02-06T10:57:32.202Z,1037.14
2018-02-06T10:59:32.171Z,1037.1
2018-02-06T11:00:32.155Z,1037.08
2018-02-06T11:01:32.143Z,1037.08
2018-02-06T11:02:32.139Z,1037.05
2018-02-06T11:03:32.111Z,1037.05
2018-02-06T11:04:32.092Z,1036.99
2018-02-06T11:05:32.074Z,1036.99
2018-02-06T11:06:32.059Z,1036.97
2018-02-06T11:07:32.048Z,1036.93
2018-02-06T11:08:32.030Z,1036.94
2018-02-06T11:09:32.013Z,1036.95
2018-02-06T11:10:31.997Z,1036.93
2018-02-06T11:11:31.981Z,1036.9
2018-02-06T11:12:31.979Z,1036.87
2018-02-06T11:13:31.949Z,1036.87
2018-02-06T11:14:31.935Z,1036.88
2018-02-06T11:15:31.918Z,1036.86
2018-02-06T11:16:31.902Z,1036.8
2018-02-06T11:17:31.886Z,1036.76
2018-02-06T11:18:31.871Z,1036.73
2018-02-06T11:19:31.857Z,1036.7
2018-02-06T11:20:31.840Z,1036.74
2018-02-06T11:21:31.825Z,1036.74
2018-02-06T11:22:31.810Z,1036.7
2018-02-06T11:23:31.798Z,1036.71
2018-02-06T11:24:31.775Z,1036.68
2018-02-06T11:25:31.760Z,1036.65
2018-02-06T11:26:31.746Z,1036.69
2018-02-06T11:27:31.729Z,1036.63
2018-02-06T11:28:31.714Z,1036.66
2018-02-06T11:29:31.711Z,1036.64
2018-02-06T11:30:31.687Z,1036.67
2018-02-06T11:31:31.668Z,1036.62
2018-02-06T11:32:31.652Z,1036.63
2018-02-06T11:33:31.637Z,1036.61
2018-02-06T11:34:31.621Z,1036.59
2018-02-06T11:35:31.607Z,1036.56
2018-02-06T11:36:31.596Z,1036.54
2018-02-06T11:37:31.596Z,1036.55
2018-02-06T11:38:31.559Z,1036.54
2018-02-06T11:39:31.543Z,1036.49
2018-02-06T11:40:31.528Z,1036.47
2018-02-06T11:41:31.513Z,1036.44
2018-02-06T11:42:31.497Z,1036.39
2018-02-06T11:43:31.481Z,1036.44
2018-02-06T11:44:31.467Z,1036.44
2018-02-06T11:45:31.452Z,1036.4
2018-02-06T11:46:31.435Z,1036.38
2018-02-06T11:47:31.419Z,1036.39
2018-02-06T11:48:31.405Z,1036.29
2018-02-06T11:49:31.388Z,1036.32
2018-02-06T11:50:31.373Z,1036.26
2018-02-06T11:51:31.360Z,1036.24
2018-02-06T11:52:31.341Z,1036.29
2018-02-06T11:53:31.325Z,1036.26
2018-02-06T11:54:31.310Z,1036.28
2018-02-06T11:55:31.293Z,1036.25
2018-02-06T11:56:31.278Z,1036.25
2018-02-06T11:57:31.262Z,1036.22
2018-02-06T11:58:31.247Z,1036.21
2018-02-06T11:59:31.235Z,1036.18
2018-02-06T12:00:31.215Z,1036.13
2018-02-06T12:01:31.214Z,1036.14
2018-02-06T12:02:31.198Z,1036.1
2018-02-06T12:03:31.169Z,1036.05
2018-02-06T12:04:31.168Z,1036.09
2018-02-06T12:05:31.137Z,1036.03
2018-02-06T12:06:31.122Z,1036.02
2018-02-06T12:07:31.105Z,1036.06
2018-02-06T12:08:31.094Z,1036.06
2018-02-06T12:09:31.074Z,1036.02
2018-02-06T12:10:31.059Z,1036
2018-02-06T12:11:31.043Z,1035.97
2018-02-06T12:12:31.027Z,1035.97
2018-02-06T12:13:31.020Z,1035.9
2018-02-06T12:14:31.000Z,1035.9
2018-02-06T12:15:31.005Z,1035.89
2018-02-06T12:16:30.965Z,1035.87
2018-02-06T12:17:30.950Z,1035.81
2018-02-06T12:19:30.918Z,1035.76
2018-02-06T12:20:30.903Z,1035.75
2018-02-06T12:21:30.894Z,1035.79
2018-02-06T12:22:30.873Z,1035.79
2018-02-06T12:23:30.862Z,1035.78
2018-02-06T12:24:30.841Z,1035.8
2018-02-06T12:25:30.826Z,1035.83
2018-02-06T12:26:30.809Z,1035.78
2018-02-06T12:27:30.794Z,1035.82
2018-02-06T12:28:30.779Z,1035.76
2018-02-06T12:29:30.779Z,1035.8
2018-02-06T12:30:30.747Z,1035.8
2018-02-06T12:31:30.732Z,1035.79
2018-02-06T12:32:30.717Z,1035.78
2018-02-06T12:33:30.700Z,1035.69
2018-02-06T12:34:30.686Z,1035.66
2018-02-06T12:35:30.670Z,1035.67
2018-02-06T12:36:30.655Z,1035.61
2018-02-06T12:37:30.638Z,1035.54
2018-02-06T12:38:30.623Z,1035.45
2018-02-06T12:39:30.631Z,1035.42
2018-02-06T12:40:30.592Z,1035.37
2018-02-06T12:41:30.577Z,1035.38
2018-02-06T12:42:30.560Z,1035.4
2018-02-06T12:43:30.550Z,1035.39
2018-02-06T12:44:30.531Z,1035.39
2018-02-06T12:45:30.514Z,1035.37
2018-02-06T12:46:30.504Z,1035.33
2018-02-06T12:47:30.495Z,1035.35
2018-02-06T12:48:30.468Z,1035.38
2018-02-06T12:49:30.453Z,1035.36
2018-02-06T12:50:30.438Z,1035.32
2018-02-06T12:51:30.421Z,1035.43
2018-02-06T12:52:30.406Z,1035.43
2018-02-06T12:53:30.390Z,1035.32
2018-02-06T12:54:30.375Z,1035.31
2018-02-06T12:55:30.359Z,1035.25
2018-02-06T12:56:30.354Z,1035.26
2018-02-06T12:57:30.331Z,1035.2
2018-02-06T12:58:30.313Z,1035.13
2018-02-06T12:59:30.298Z,1035.18
2018-02-06T13:00:30.287Z,1035.19
2018-02-06T13:01:30.266Z,1035.16
2018-02-06T13:02:30.249Z,1035.18
2018-02-06T13:03:30.248Z,1035.23
2018-02-06T13:04:30.218Z,1035.12
2018-02-06T13:05:30.203Z,1035.13
2018-02-06T13:06:30.187Z,1035.14
2018-02-06T13:07:30.172Z,1035.14
2018-02-06T13:08:30.156Z,1035.23
2018-02-06T13:09:30.141Z,1035.16
2018-02-06T13:10:30.125Z,1035.09
2018-02-06T13:11:30.116Z,1035.06
2018-02-06T13:12:30.095Z,1035.05
2018-02-06T13:13:30.078Z,1034.99
2018-02-06T13:14:30.063Z,1034.98
2018-02-06T13:15:30.052Z,1034.91
2018-02-06T13:16:30.033Z,1034.8
2018-02-06T13:17:30.017Z,1034.92
2018-02-06T13:18:30.013Z,1034.88
2018-02-06T13:19:29.985Z,1034.88
2018-02-06T13:20:29.969Z,1034.84
2018-02-06T13:21:29.953Z,1034.8
2018-02-06T13:22:29.938Z,1034.83
2018-02-06T13:23:29.923Z,1034.8
2018-02-06T13:24:29.910Z,1034.84
2018-02-06T13:25:29.891Z,1034.88
2018-02-06T13:26:29.876Z,1034.84
2018-02-06T13:27:29.861Z,1034.86
2018-02-06T13:28:29.844Z,1034.88
2018-02-06T13:29:29.828Z,1034.87
2018-02-06T13:30:29.813Z,1034.91
2018-02-06T13:31:29.797Z,1034.9
2018-02-06T13:32:29.782Z,1034.87
2018-02-06T13:33:29.766Z,1034.87
2018-02-06T13:34:29.751Z,1034.86
2018-02-06T13:35:29.734Z,1034.81
2018-02-06T13:36:29.719Z,1034.81
2018-02-06T13:37:29.710Z,1034.74
2018-02-06T13:38:29.688Z,1034.74
2018-02-06T13:39:29.672Z,1034.76
2018-02-06T13:40:29.656Z,1034.78
2018-02-06T13:41:29.641Z,1034.71
2018-02-06T13:42:29.625Z,1034.74
2018-02-06T13:43:29.609Z,1034.79
2018-02-06T13:44:29.597Z,1034.78
2018-02-06T13:45:29.578Z,1034.83
2018-02-06T13:46:29.562Z,1034.78
2018-02-06T13:47:29.549Z,1034.77
2018-02-06T13:48:29.531Z,1034.79
2018-02-06T13:49:29.516Z,1034.78
2018-02-06T13:50:29.499Z,1034.74
2018-02-06T13:51:29.483Z,1034.74
2018-02-06T13:52:29.469Z,1034.75
2018-02-06T13:53:29.452Z,1034.75
2018-02-06T13:54:29.436Z,1034.76
2018-02-06T13:55:29.424Z,1034.79
2018-02-06T13:56:29.409Z,1034.83
2018-02-06T13:57:29.398Z,1034.79
2018-02-06T13:58:29.373Z,1034.74
2018-02-06T13:59:29.358Z,1034.75
2018-02-06T14:00:29.360Z,1034.74
2018-02-06T14:01:29.339Z,1034.74
2018-02-06T14:02:29.314Z,1034.72
2018-02-06T14:03:29.296Z,1034.77
2018-02-06T14:04:29.316Z,1034.74
2018-02-06T14:05:29.267Z,1034.77
2018-02-06T14:06:29.249Z,1034.73
2018-02-06T14:07:29.247Z,1034.72
2018-02-06T14:08:29.237Z,1034.7
2018-02-06T14:09:29.204Z,1034.78
2018-02-06T14:10:29.187Z,1034.77
2018-02-06T14:11:29.170Z,1034.69
2018-02-06T14:12:29.153Z,1034.67
2018-02-06T14:13:29.139Z,1034.7